Time;durP1;ratioP1;P1;durP2;ratioP2;P2;SDS_P1;SDS_P2;PMS_P1;PMS_P2;Temp;Humidity;BMP_temperature;BMP_pressure;BME280_temperature;BME280_humidity;BME280_pressure;Samples;Min_cycle;Max_cycle;Signal;HPM_P1;HPM_P2
2022/11/19 00:01:13;;;;;;;23.65;10.68;;;-1.00;66.50;;;;;;6053753;23;114312;-80
2022/11/19 00:03:41;;;;;;;25.60;12.25;;;-1.00;66.10;;;;;;6051668;23;115380;-83
2022/11/19 00:06:13;;;;;;;25.98;13.07;;;-1.10;66.00;;;;;;6051278;23;115192;-82
2022/11/19 00:08:40;;;;;;;25.92;11.93;;;-1.20;66.20;;;;;;6028086;23;114811;-82
2022/11/19 00:14:04;;;;;;;24.75;11.63;;;-1.10;66.50;;;;;;6052786;23;114876;-81
2022/11/19 00:16:31;;;;;;;24.83;12.45;;;-1.10;66.80;;;;;;6004071;23;118394;-81
2022/11/19 00:18:58;;;;;;;30.58;13.85;;;-1.10;66.90;;;;;;6029303;23;114186;-81
2022/11/19 00:21:25;;;;;;;27.50;14.00;;;-1.00;67.00;;;;;;6054790;23;114775;-81
2022/11/19 00:23:53;;;;;;;31.00;14.63;;;-1.00;66.80;;;;;;6051451;23;114893;-82
2022/11/19 00:26:20;;;;;;;30.58;13.60;;;-1.00;66.90;;;;;;6003991;23;117665;-82
2022/11/19 00:28:47;;;;;;;27.92;13.32;;;-0.90;66.80;;;;;;6053091;23;114509;-82
2022/11/19 00:31:14;;;;;;;26.75;13.43;;;-1.00;65.90;;;;;;6055008;23;113993;-82
2022/11/19 00:33:42;;;;;;;26.30;13.07;;;-1.00;66.10;;;;;;6053508;23;114827;-83
2022/11/19 00:36:11;;;;;;;25.63;12.15;;;-1.10;66.20;;;;;;6054211;23;114598;-83
2022/11/19 00:38:38;;;;;;;20.25;9.68;;;-1.10;66.00;;;;;;6052794;23;114403;-82
2022/11/19 00:41:05;;;;;;;22.25;10.70;;;-1.10;66.10;;;;;;6076960;23;114206;-81
2022/11/19 00:43:47;;;;;;;23.80;11.60;;;-1.10;65.60;;;;;;6051671;23;114940;-81
2022/11/19 00:46:26;;;;;;;30.10;12.45;;;-1.20;65.80;;;;;;6030454;23;114612;-80
2022/11/19 00:48:54;;;;;;;25.33;11.88;;;-1.20;66.00;;;;;;6053500;23;114396;-81
2022/11/19 00:51:21;;;;;;;27.85;12.35;;;-1.10;66.10;;;;;;6054586;23;114297;-81
2022/11/19 00:53:48;;;;;;;29.08;12.30;;;-1.20;65.80;;;;;;6051030;23;115023;-81
2022/11/19 00:56:17;;;;;;;29.35;11.85;;;-1.20;66.10;;;;;;6053342;23;114636;-82
2022/11/19 00:58:44;;;;;;;26.83;12.40;;;-1.10;66.30;;;;;;6052788;23;115280;-82
2022/11/19 01:01:12;;;;;;;29.98;12.43;;;-1.00;66.30;;;;;;6054050;23;114062;-81
2022/11/19 01:03:39;;;;;;;30.90;12.88;;;-1.00;66.40;;;;;;6053501;23;115273;-82
2022/11/19 01:06:07;;;;;;;29.10;12.60;;;-0.90;66.40;;;;;;6052148;23;114621;-82
2022/11/19 01:08:34;;;;;;;24.73;12.75;;;-0.80;66.20;;;;;;6053126;23;114314;-82
2022/11/19 01:11:12;;;;;;;25.90;12.40;;;-0.70;66.20;;;;;;6054140;23;114466;-82
2022/11/19 01:13:39;;;;;;;27.48;13.30;;;-0.60;65.50;;;;;;6050921;23;114794;-81
2022/11/19 01:16:07;;;;;;;25.63;12.30;;;-0.70;65.90;;;;;;6052798;23;114534;-82
2022/11/19 01:18:35;;;;;;;26.67;12.73;;;-0.70;65.50;;;;;;6051977;23;114417;-82
2022/11/19 01:21:03;;;;;;;26.23;11.80;;;-0.80;65.20;;;;;;6052000;23;114839;-82
2022/11/19 01:23:30;;;;;;;27.17;12.40;;;-0.80;65.40;;;;;;6051477;23;114988;-82
2022/11/19 01:25:57;;;;;;;26.35;12.40;;;-0.90;65.30;;;;;;6029087;23;114605;-83
2022/11/19 01:28:24;;;;;;;28.95;13.57;;;-0.90;65.70;;;;;;6056031;23;114170;-83
2022/11/19 01:30:51;;;;;;;29.40;13.50;;;-0.90;65.70;;;;;;6056187;23;114082;-83
2022/11/19 01:33:19;;;;;;;28.65;13.80;;;-0.90;65.90;;;;;;6055545;23;114802;-83
2022/11/19 01:35:58;;;;;;;32.85;14.32;;;-0.80;66.00;;;;;;6055688;23;115715;-83
2022/11/19 01:38:26;;;;;;;28.90;12.68;;;-0.80;65.60;;;;;;6054295;23;114320;-83
2022/11/19 01:40:52;;;;;;;29.83;13.77;;;-0.70;65.70;;;;;;6053971;23;114565;-82
2022/11/19 01:43:19;;;;;;;28.60;13.45;;;-0.70;65.90;;;;;;6053665;23;114789;-82
2022/11/19 01:45:48;;;;;;;30.48;13.88;;;-0.70;66.00;;;;;;6054792;23;114628;-82
2022/11/19 01:48:22;;;;;;;29.00;14.30;;;-0.60;66.20;;;;;;6055176;23;114348;-82
2022/11/19 01:50:57;;;;;;;30.75;14.45;;;-0.50;66.00;;;;;;6056754;23;114367;-83
2022/11/19 01:53:27;;;;;;;28.10;14.13;;;-0.50;65.80;;;;;;6054443;23;115109;-82
2022/11/19 01:55:55;;;;;;;24.75;13.18;;;-0.50;65.80;;;;;;6053722;23;116689;-83
2022/11/19 01:58:22;;;;;;;34.97;13.93;;;-0.60;65.60;;;;;;6054865;23;115332;-82
2022/11/19 02:00:49;;;;;;;27.42;13.13;;;-0.50;65.90;;;;;;6052572;23;114754;-83
2022/11/19 02:03:17;;;;;;;26.60;13.30;;;-0.50;65.40;;;;;;6051079;23;114758;-83
2022/11/19 02:05:44;;;;;;;26.85;14.20;;;-0.60;65.20;;;;;;6052381;23;115788;-82
2022/11/19 02:08:32;;;;;;;29.90;15.02;;;-0.60;65.70;;;;;;6028812;23;114303;-82
2022/11/19 02:11:08;;;;;;;31.15;14.00;;;-0.60;65.50;;;;;;6054260;23;114345;-82
2022/11/19 02:14:09;;;;;;;28.58;13.70;;;-0.60;65.50;;;;;;6028854;23;115227;-82
2022/11/19 02:17:16;;;;;;;33.33;14.75;;;-0.70;65.30;;;;;;6051488;23;114788;-82
2022/11/19 02:19:57;;;;;;;29.58;13.55;;;-0.70;65.50;;;;;;6054240;23;114363;-82
2022/11/19 02:22:54;;;;;;;25.38;13.60;;;-0.80;65.60;;;;;;6055060;23;114377;-83
2022/11/19 02:26:13;;;;;;;31.02;14.13;;;-0.80;65.60;;;;;;6053515;23;114938;-83
2022/11/19 02:28:45;;;;;;;31.65;13.18;;;-0.80;65.80;;;;;;6047327;23;115471;-81
2022/11/19 02:31:34;;;;;;;29.27;14.23;;;-0.80;65.50;;;;;;6028214;23;115035;-83
2022/11/19 02:34:16;;;;;;;27.95;14.20;;;-0.80;65.40;;;;;;6052513;23;114190;-83
2022/11/19 02:36:47;;;;;;;31.70;14.43;;;-0.80;65.90;;;;;;6029741;23;114819;-83
2022/11/19 02:39:42;;;;;;;32.45;14.52;;;-0.80;66.00;;;;;;6051487;23;114625;-82
2022/11/19 02:42:33;;;;;;;30.65;14.80;;;-0.70;66.20;;;;;;6051997;23;114764;-82
2022/11/19 02:45:18;;;;;;;30.92;13.43;;;-0.60;66.30;;;;;;6054290;23;114093;-83
2022/11/19 02:47:49;;;;;;;;;;;-0.60;65.80;;;;;;6027897;23;114804;-83
2022/11/19 02:50:22;;;;;;;33.97;15.52;;;-0.70;65.90;;;;;;6053232;23;114571;-82
2022/11/19 02:52:49;;;;;;;29.83;13.60;;;-0.80;65.90;;;;;;6029056;23;114282;-83
2022/11/19 02:55:18;;;;;;;30.90;13.73;;;-0.70;66.30;;;;;;6028469;23;114240;-83
2022/11/19 02:58:07;;;;;;;30.90;14.43;;;-0.60;66.20;;;;;;6026799;23;114858;-82
2022/11/19 03:06:26;;;;;;;28.92;13.85;;;-0.60;65.90;;;;;;6031854;23;114618;-82
2022/11/19 03:08:53;;;;;;;30.75;14.18;;;-0.50;65.90;;;;;;6052683;23;114831;-82
2022/11/19 03:11:27;;;;;;;29.65;15.10;;;-0.50;65.90;;;;;;6053587;23;115100;-82
2022/11/19 03:16:56;;;;;;;28.92;12.95;;;-0.60;65.70;;;;;;6055347;23;114354;-82
2022/11/19 03:19:30;;;;;;;28.77;13.70;;;-0.50;65.90;;;;;;6031098;23;114775;-83
2022/11/19 03:22:08;;;;;;;29.90;14.47;;;-0.50;66.00;;;;;;6053789;23;115059;-83
2022/11/19 03:24:40;;;;;;;29.00;14.73;;;-0.50;65.80;;;;;;6053300;23;114474;-83
2022/11/19 03:27:15;;;;;;;28.60;13.93;;;-0.50;65.60;;;;;;6053760;23;114601;-83
2022/11/19 03:29:44;;;;;;;32.67;14.02;;;-0.40;65.50;;;;;;6028656;23;114837;-81
2022/11/19 03:32:15;;;;;;;33.47;14.27;;;-0.40;65.60;;;;;;6052782;23;114616;-81
2022/11/19 03:34:44;;;;;;;31.77;15.18;;;-0.40;65.70;;;;;;6078699;23;114401;-82
2022/11/19 03:37:10;;;;;;;29.23;13.65;;;-0.40;65.50;;;;;;6054116;23;114184;-82
2022/11/19 03:39:37;;;;;;;28.08;13.73;;;-0.30;65.40;;;;;;6029037;23;115965;-82
2022/11/19 03:42:07;;;;;;;30.40;13.63;;;-0.30;65.60;;;;;;6053121;23;114979;-81
2022/11/19 03:44:41;;;;;;;33.10;15.93;;;-0.30;65.60;;;;;;6030173;23;114170;-82
2022/11/19 03:47:17;;;;;;;32.35;15.20;;;-0.30;65.90;;;;;;6054093;23;114082;-82
2022/11/19 03:49:46;;;;;;;29.23;15.48;;;-0.30;65.60;;;;;;6052648;23;114788;-82
2022/11/19 03:52:14;;;;;;;30.60;14.02;;;-0.30;65.50;;;;;;6028990;23;114631;-82
2022/11/19 03:54:41;;;;;;;32.58;15.50;;;-0.30;65.40;;;;;;6029255;23;114535;-82
2022/11/19 03:57:11;;;;;;;30.35;14.77;;;-0.40;65.40;;;;;;6054898;23;114343;-82
2022/11/19 03:59:38;;;;;;;33.28;15.60;;;-0.50;65.40;;;;;;6028473;23;114897;-82
2022/11/19 04:02:07;;;;;;;32.00;14.73;;;-0.40;65.60;;;;;;6053314;23;114502;-82
2022/11/19 04:04:36;;;;;;;28.17;13.23;;;-0.40;65.50;;;;;;6053417;23;114182;-83
2022/11/19 04:07:10;;;;;;;32.97;14.80;;;-0.40;65.60;;;;;;6055066;23;114299;-82
2022/11/19 04:09:38;;;;;;;33.92;15.18;;;-0.30;65.70;;;;;;6053603;23;115231;-82
2022/11/19 04:12:12;;;;;;;33.97;15.25;;;-0.30;65.60;;;;;;6028255;23;114491;-81
2022/11/19 04:14:39;;;;;;;;;;;-0.30;65.50;;;;;;6030409;23;114194;-82
2022/11/19 04:17:06;;;;;;;32.85;15.15;;;-0.30;65.70;;;;;;6052908;23;114334;-83
2022/11/19 04:19:33;;;;;;;35.35;16.42;;;-0.30;65.50;;;;;;6027730;23;115776;-83
2022/11/19 04:22:00;;;;;;;32.78;15.18;;;-0.30;65.30;;;;;;6026383;23;118168;-83
2022/11/19 04:24:27;;;;;;;34.60;16.85;;;-0.30;65.30;;;;;;6004881;23;114173;-83
2022/11/19 04:26:54;;;;;;;33.10;16.23;;;-0.20;65.20;;;;;;6053873;23;114610;-83
2022/11/19 04:29:21;;;;;;;33.65;15.07;;;-0.10;65.20;;;;;;6053128;23;114737;-82
2022/11/19 04:31:48;;;;;;;35.60;16.80;;;-0.20;65.30;;;;;;6053489;23;114766;-82
2022/11/19 04:34:15;;;;;;;31.38;15.95;;;-0.10;65.00;;;;;;6052694;23;114159;-83
2022/11/19 04:36:42;;;;;;;34.10;16.60;;;-0.10;65.00;;;;;;6054310;23;114226;-81
2022/11/19 04:39:11;;;;;;;32.63;16.10;;;-0.10;65.10;;;;;;6050559;23;116389;-82
2022/11/19 04:41:38;;;;;;;35.17;15.68;;;-0.10;65.10;;;;;;6052642;23;114619;-82
2022/11/19 04:44:05;;;;;;;34.58;16.27;;;-0.10;65.00;;;;;;6028464;23;114119;-83
2022/11/19 04:46:32;;;;;;;33.50;17.75;;;-0.10;65.00;;;;;;6052539;23;114351;-82
2022/11/19 04:48:59;;;;;;;36.20;17.50;;;-0.10;64.90;;;;;;6051419;23;114837;-83
2022/11/19 04:51:26;;;;;;;36.85;17.92;;;-0.10;64.90;;;;;;6003965;23;114916;-83
2022/11/19 04:53:54;;;;;;;33.42;16.65;;;0.00;64.80;;;;;;6054204;23;114761;-82
2022/11/19 04:56:21;;;;;;;36.00;16.45;;;-0.10;64.70;;;;;;6053194;23;114363;-83
2022/11/19 04:58:48;;;;;;;35.20;16.48;;;0.00;64.70;;;;;;6051276;23;115606;-82
2022/11/19 05:01:15;;;;;;;37.15;17.75;;;0.00;64.70;;;;;;6052798;23;115027;-82
2022/11/19 05:03:42;;;;;;;36.00;17.27;;;0.00;64.70;;;;;;6052097;23;114319;-82
2022/11/19 05:06:09;;;;;;;31.90;15.52;;;0.10;64.60;;;;;;6052706;23;114216;-82
2022/11/19 05:08:36;;;;;;;36.50;17.42;;;0.10;64.60;;;;;;6051388;23;114834;-82
2022/11/19 05:11:03;;;;;;;37.95;16.73;;;0.00;64.70;;;;;;6052953;23;114600;-82
2022/11/19 05:13:30;;;;;;;35.40;17.58;;;0.00;64.50;;;;;;6052530;23;114348;-82
2022/11/19 05:15:57;;;;;;;30.85;15.93;;;0.00;64.70;;;;;;6054128;23;114314;-82
2022/11/19 05:18:24;;;;;;;28.75;14.90;;;0.00;64.60;;;;;;6053013;23;114814;-82
2022/11/19 05:20:51;;;;;;;30.45;14.93;;;0.10;64.60;;;;;;6053319;23;114808;-82
2022/11/19 05:23:18;;;;;;;26.13;13.30;;;0.10;64.50;;;;;;6054125;23;114301;-83
2022/11/19 05:25:45;;;;;;;30.90;14.80;;;0.10;64.20;;;;;;6053971;23;114173;-82
2022/11/19 05:28:12;;;;;;;31.65;14.77;;;0.10;64.20;;;;;;6051640;23;114999;-82
2022/11/19 05:30:39;;;;;;;28.80;14.90;;;0.10;64.10;;;;;;6051316;23;114665;-82
2022/11/19 05:33:06;;;;;;;25.73;13.18;;;0.10;63.90;;;;;;6052353;23;114229;-83
2022/11/19 05:35:33;;;;;;;31.73;15.73;;;0.10;63.70;;;;;;6004354;23;114569;-83
2022/11/19 05:38:00;;;;;;;30.17;15.18;;;0.00;63.90;;;;;;6052406;23;115163;-83
2022/11/19 05:40:27;;;;;;;29.98;15.52;;;-0.10;63.70;;;;;;6052775;23;114722;-82
2022/11/19 05:42:54;;;;;;;29.63;15.02;;;-0.10;63.60;;;;;;6053533;23;114350;-83
2022/11/19 05:45:21;;;;;;;27.55;13.32;;;-0.10;63.70;;;;;;6052950;23;114250;-82
2022/11/19 05:47:53;;;;;;;23.42;12.18;;;-0.10;63.50;;;;;;6027287;23;114861;-83
2022/11/19 05:50:20;;;;;;;26.10;13.55;;;-0.20;63.50;;;;;;6052883;23;115248;-83
2022/11/19 05:52:48;;;;;;;31.20;14.25;;;-0.20;63.60;;;;;;6053379;23;114502;-83
2022/11/19 05:55:15;;;;;;;22.00;12.32;;;-0.20;63.50;;;;;;6054350;23;114211;-83
2022/11/19 05:57:42;;;;;;;22.77;11.60;;;-0.30;63.10;;;;;;6052956;23;115172;-83
2022/11/19 06:00:10;;;;;;;24.13;12.32;;;-0.30;63.10;;;;;;6051644;23;114702;-82
2022/11/19 06:02:40;;;;;;;22.63;12.07;;;-0.40;63.20;;;;;;6052380;23;114481;-82
2022/11/19 06:05:07;;;;;;;23.75;12.48;;;-0.40;63.60;;;;;;6028301;23;114468;-82
2022/11/19 06:07:34;;;;;;;20.98;11.48;;;-0.30;63.60;;;;;;6052592;23;115123;-83
2022/11/19 06:10:01;;;;;;;25.42;12.48;;;-0.30;63.40;;;;;;6051943;23;115878;-83
2022/11/19 06:12:29;;;;;;;21.98;12.18;;;-0.30;63.40;;;;;;6053766;23;114133;-83
2022/11/19 06:14:56;;;;;;;25.58;12.25;;;-0.20;63.40;;;;;;6052255;23;114423;-84
2022/11/19 06:17:23;;;;;;;25.60;12.82;;;-0.20;63.40;;;;;;6026855;23;114806;-83
2022/11/19 06:19:50;;;;;;;24.70;12.48;;;-0.20;63.30;;;;;;6051105;23;114676;-83
2022/11/19 06:22:17;;;;;;;24.88;12.60;;;-0.10;62.90;;;;;;6052193;23;114505;-82
2022/11/19 06:24:44;;;;;;;23.90;13.48;;;-0.20;63.00;;;;;;6053491;23;114200;-82
2022/11/19 06:27:11;;;;;;;26.20;13.75;;;-0.20;62.90;;;;;;6052105;23;114808;-82
2022/11/19 06:29:38;;;;;;;27.33;13.70;;;-0.20;63.00;;;;;;6051201;23;114512;-82
2022/11/19 06:32:05;;;;;;;26.00;14.50;;;-0.10;63.10;;;;;;6052191;23;114067;-82
2022/11/19 06:34:32;;;;;;;25.95;13.68;;;-0.10;63.20;;;;;;6052629;23;114366;-82
2022/11/19 06:36:59;;;;;;;26.00;13.55;;;-0.10;63.20;;;;;;6050338;23;117721;-82
2022/11/19 06:39:26;;;;;;;25.15;13.32;;;-0.10;63.10;;;;;;6025470;23;115383;-83
2022/11/19 06:42:34;;;;;;;28.38;13.88;;;-0.10;63.50;;;;;;6027033;23;114255;-82
2022/11/19 06:44:40;;;;;;;25.80;13.65;;;-0.10;63.50;;;;;;6053181;23;114213;-81
2022/11/19 06:47:07;;;;;;;29.70;15.57;;;-0.10;63.60;;;;;;6052382;23;114806;-83
2022/11/19 06:49:34;;;;;;;24.40;13.07;;;-0.10;63.60;;;;;;6053928;23;114908;-82
2022/11/19 06:52:01;;;;;;;23.75;12.48;;;-0.10;63.90;;;;;;6053372;23;114351;-83
2022/11/19 06:54:28;;;;;;;27.52;13.65;;;0.00;63.70;;;;;;6054999;23;113968;-82
2022/11/19 06:56:55;;;;;;;24.38;13.32;;;0.00;63.40;;;;;;6052509;23;114853;-82
2022/11/19 06:59:21;;;;;;;28.40;13.52;;;-0.10;63.10;;;;;;6053880;23;115165;-82
2022/11/19 07:01:49;;;;;;;25.67;12.25;;;-0.10;63.00;;;;;;6053012;23;114113;-82
2022/11/19 07:04:16;;;;;;;25.60;13.60;;;-0.10;63.00;;;;;;6029212;23;114398;-83
2022/11/19 07:06:43;;;;;;;25.98;13.05;;;-0.10;62.90;;;;;;6051256;23;115046;-84
2022/11/19 07:09:10;;;;;;;22.38;12.75;;;-0.10;63.00;;;;;;6076485;23;114657;-83
2022/11/19 07:11:37;;;;;;;25.48;13.05;;;-0.10;63.00;;;;;;6053131;23;114376;-83
2022/11/19 07:14:04;;;;;;;26.38;14.50;;;-0.10;62.80;;;;;;6029454;23;115140;-84
2022/11/19 07:16:33;;;;;;;31.83;13.05;;;0.00;62.60;;;;;;6053501;23;115404;-83
2022/11/19 07:19:01;;;;;;;30.58;14.45;;;0.00;62.60;;;;;;6004517;23;115763;-84
2022/11/19 07:21:30;;;;;;;22.48;13.18;;;0.00;62.00;;;;;;6055615;23;114244;-83
2022/11/19 07:23:57;;;;;;;25.40;12.57;;;-0.20;62.10;;;;;;6055054;23;114203;-83
2022/11/19 07:26:24;;;;;;;26.27;12.45;;;-0.30;61.90;;;;;;6052992;23;115174;-84
2022/11/19 07:28:51;;;;;;;26.88;13.23;;;-0.30;62.10;;;;;;6051904;23;114543;-84
2022/11/19 07:31:18;;;;;;;26.00;13.75;;;-0.30;62.10;;;;;;6028148;23;114283;-84
2022/11/19 07:33:45;;;;;;;27.10;13.70;;;-0.40;62.30;;;;;;6054345;23;114335;-83
2022/11/19 07:36:13;;;;;;;29.73;14.48;;;-0.50;62.20;;;;;;6053880;23;114731;-84
2022/11/19 07:38:45;;;;;;;25.00;13.45;;;-0.60;62.30;;;;;;6052880;23;115395;-84
2022/11/19 07:43:57;;;;;;;25.92;13.98;;;-0.50;62.60;;;;;;6053051;23;114308;-84
2022/11/19 07:46:24;;;;;;;27.50;14.98;;;-0.50;62.90;;;;;;6051450;23;114964;-83
2022/11/19 07:48:55;;;;;;;28.77;14.95;;;-0.40;62.60;;;;;;6051909;23;114892;-83
2022/11/19 07:51:22;;;;;;;30.60;14.90;;;-0.30;62.50;;;;;;6054153;23;115004;-84
2022/11/19 07:53:50;;;;;;;28.10;13.85;;;-0.20;62.20;;;;;;6029033;23;114235;-83
2022/11/19 07:56:17;;;;;;;26.42;13.80;;;-0.30;62.20;;;;;;6027066;23;115321;-83
2022/11/19 07:58:44;;;;;;;28.65;15.50;;;-0.20;62.20;;;;;;6051588;23;114577;-83
2022/11/19 08:01:13;;;;;;;27.92;14.23;;;-0.30;62.30;;;;;;6052993;23;114389;-83
2022/11/19 08:03:41;;;;;;;27.95;14.63;;;-0.30;62.30;;;;;;6076724;23;114414;-83
2022/11/19 08:06:08;;;;;;;29.20;13.65;;;-0.20;62.60;;;;;;6027887;23;115641;-85
2022/11/19 08:08:35;;;;;;;27.73;14.52;;;-0.20;62.80;;;;;;6053152;23;114758;-82
2022/11/19 08:11:04;;;;;;;27.77;13.93;;;0.00;62.70;;;;;;6055707;23;114718;-83
2022/11/19 08:13:31;;;;;;;26.73;12.93;;;0.00;62.30;;;;;;6055370;23;114688;-83
2022/11/19 08:16:09;;;;;;;27.58;14.05;;;0.10;62.50;;;;;;6054356;23;117717;-83
2022/11/19 08:18:36;;;;;;;32.33;14.90;;;0.10;62.20;;;;;;6029248;23;114654;-82
2022/11/19 08:21:07;;;;;;;28.38;14.15;;;0.20;62.20;;;;;;6052299;23;114365;-83
2022/11/19 08:23:35;;;;;;;33.72;16.00;;;0.20;61.70;;;;;;6029871;23;114608;-82
2022/11/19 08:26:04;;;;;;;29.83;15.35;;;0.20;61.90;;;;;;6051081;23;115201;-83
2022/11/19 08:28:31;;;;;;;32.40;15.38;;;0.20;61.70;;;;;;6027417;23;114668;-83
2022/11/19 08:31:06;;;;;;;28.75;15.30;;;0.40;61.60;;;;;;6052749;23;114390;-84
2022/11/19 08:33:33;;;;;;;;;;;0.50;61.60;;;;;;6054657;23;114393;-84
2022/11/19 08:36:00;;;;;;;24.83;12.02;;;0.40;61.90;;;;;;6051156;23;117545;-84
2022/11/19 08:38:27;;;;;;;26.98;13.77;;;0.50;61.10;;;;;;6052071;23;115524;-84
2022/11/19 08:42:58;;;;;;;28.90;14.95;;;0.60;61.00;;;;;;6052755;23;114301;-84
2022/11/19 08:43:41;;;;;;;30.35;15.30;;;0.60;60.50;;;;;;6054182;23;114249;-84
2022/11/19 08:46:08;;;;;;;32.63;17.83;;;0.60;60.10;;;;;;6051403;23;114810;-84
2022/11/19 08:48:35;;;;;;;27.70;14.70;;;0.70;60.10;;;;;;6075605;23;115253;-84
2022/11/19 08:51:06;;;;;;;23.20;11.52;;;0.70;59.90;;;;;;6052714;23;114281;-84
2022/11/19 08:53:33;;;;;;;17.75;10.30;;;0.80;59.40;;;;;;6029061;23;114101;-84
2022/11/19 08:56:00;;;;;;;18.05;9.20;;;0.80;59.20;;;;;;6053014;23;115499;-84
2022/11/19 08:58:27;;;;;;;18.17;9.60;;;0.90;58.90;;;;;;6051327;23;114881;-84
2022/11/19 09:00:54;;;;;;;14.52;8.18;;;0.90;58.50;;;;;;6077153;23;114251;-84
2022/11/19 09:03:21;;;;;;;11.98;6.65;;;0.90;57.90;;;;;;6053228;23;114421;-83
2022/11/19 09:05:48;;;;;;;11.35;5.95;;;0.80;57.20;;;;;;6076556;23;115174;-84
2022/11/19 09:08:15;;;;;;;16.38;8.63;;;0.90;57.00;;;;;;6073667;23;114852;-83
2022/11/19 09:10:42;;;;;;;17.52;9.60;;;0.90;56.80;;;;;;6053030;23;114405;-85
2022/11/19 09:13:09;;;;;;;18.02;9.75;;;0.80;56.90;;;;;;6076608;23;114389;-84
2022/11/19 09:15:36;;;;;;;14.27;8.57;;;0.80;57.50;;;;;;6051862;23;114824;-84
2022/11/19 09:18:03;;;;;;;16.63;8.63;;;0.80;56.90;;;;;;6051794;23;115093;-84
2022/11/19 09:20:30;;;;;;;14.60;7.90;;;0.80;56.60;;;;;;6054111;23;114131;-84
2022/11/19 09:22:57;;;;;;;12.27;6.65;;;0.70;56.50;;;;;;6054023;23;114264;-84
2022/11/19 09:25:24;;;;;;;14.05;7.00;;;0.70;56.10;;;;;;6076111;23;114790;-85
2022/11/19 09:27:51;;;;;;;10.52;6.20;;;0.60;55.70;;;;;;6076304;23;114673;-83
2022/11/19 09:30:18;;;;;;;11.60;6.28;;;0.60;55.60;;;;;;6052152;23;114148;-84
2022/11/19 09:32:45;;;;;;;11.05;6.32;;;0.60;55.10;;;;;;6052635;23;114270;-83
2022/11/19 09:35:12;;;;;;;13.77;7.15;;;0.50;55.20;;;;;;6051925;23;115457;-85
2022/11/19 09:37:39;;;;;;;12.93;7.47;;;0.50;55.60;;;;;;6052021;23;114761;-85
2022/11/19 09:40:08;;;;;;;11.60;6.15;;;0.60;55.70;;;;;;6076769;23;114350;-85
2022/11/19 09:43:01;;;;;;;14.43;7.18;;;0.70;55.50;;;;;;6075864;23;114576;-85
2022/11/19 09:45:52;;;;;;;12.45;6.97;;;0.70;54.60;;;;;;6075360;23;115128;-82
2022/11/19 09:48:33;;;;;;;17.80;8.63;;;0.80;54.60;;;;;;6075315;23;114817;-85
2022/11/19 09:51:03;;;;;;;16.73;8.45;;;0.80;54.20;;;;;;6053852;23;114281;-85
2022/11/19 09:53:33;;;;;;;16.27;8.63;;;0.80;54.60;;;;;;6053976;23;114494;-85
2022/11/19 09:56:00;;;;;;;25.70;13.27;;;0.80;54.90;;;;;;6075438;23;115475;-85
2022/11/19 09:58:42;;;;;;;17.27;9.13;;;0.80;54.30;;;;;;6027075;23;114930;-85
2022/11/19 10:01:16;;;;;;;17.35;8.70;;;0.90;54.40;;;;;;6051299;23;114615;-85
2022/11/19 10:03:47;;;;;;;16.20;8.27;;;0.90;54.40;;;;;;6052366;23;114973;-84
2022/11/19 10:06:27;;;;;;;19.83;9.93;;;0.90;54.70;;;;;;6052538;23;114850;-85
2022/11/19 10:09:03;;;;;;;19.05;10.80;;;1.00;54.80;;;;;;6076316;23;115597;-85
2022/11/19 10:12:02;;;;;;;17.75;9.13;;;1.10;55.30;;;;;;6054056;23;114156;-85
2022/11/19 10:14:46;;;;;;;18.35;8.07;;;1.20;54.60;;;;;;6077082;23;114455;-85
2022/11/19 10:17:32;;;;;;;18.70;8.98;;;1.10;54.90;;;;;;6075775;23;114896;-85
2022/11/19 10:20:12;;;;;;;14.40;8.35;;;1.20;54.50;;;;;;6053394;23;115064;-85
2022/11/19 10:23:02;;;;;;;15.88;8.43;;;1.20;54.30;;;;;;6052280;23;114314;-85
2022/11/19 10:25:41;;;;;;;15.32;8.40;;;1.20;54.70;;;;;;6048168;23;114570;-85
2022/11/19 10:28:14;;;;;;;13.70;7.75;;;1.30;54.90;;;;;;6050742;23;115074;-84
2022/11/19 10:30:49;;;;;;;17.13;9.00;;;1.30;54.50;;;;;;6051080;23;117536;-85
2022/11/19 10:33:39;;;;;;;18.98;9.52;;;1.30;53.90;;;;;;6052365;23;114119;-85
2022/11/19 10:36:08;;;;;;;17.80;9.10;;;1.30;54.40;;;;;;6052252;23;114678;-84
2022/11/19 10:38:49;;;;;;;17.20;9.00;;;1.30;54.60;;;;;;6026563;23;116124;-85
2022/11/19 10:41:39;;;;;;;17.30;9.82;;;1.30;55.20;;;;;;6002100;23;117422;-84
2022/11/19 10:44:36;;;;;;;17.52;9.27;;;1.30;54.30;;;;;;6027789;23;114308;-84
2022/11/19 10:47:04;;;;;;;19.48;10.15;;;1.40;54.20;;;;;;6072055;23;114221;-85
2022/11/19 10:49:40;;;;;;;16.55;9.40;;;1.40;54.10;;;;;;6050542;23;114975;-85
2022/11/19 10:52:21;;;;;;;18.67;9.00;;;1.50;53.80;;;;;;6050495;23;115144;-85
2022/11/19 10:54:51;;;;;;;16.92;9.20;;;1.40;52.60;;;;;;6051236;23;114433;-89
2022/11/19 10:57:18;;;;;;;9.15;5.13;;;1.30;53.40;;;;;;6028302;23;114288;-83
2022/11/19 10:59:45;;;;;;;15.52;8.40;;;1.30;52.40;;;;;;6074138;23;115609;-86
2022/11/19 11:02:32;;;;;;;17.88;9.80;;;1.10;51.30;;;;;;6051576;23;114767;-84
2022/11/19 11:05:05;;;;;;;18.00;9.60;;;0.90;52.70;;;;;;6028223;23;114389;-83
2022/11/19 11:07:53;;;;;;;17.60;9.43;;;0.80;52.70;;;;;;6028076;23;114400;-84
2022/11/19 11:10:41;;;;;;;13.93;7.75;;;0.70;51.50;;;;;;6050904;23;114846;-84
2022/11/19 11:16:17;;;;;;;15.27;8.43;;;0.60;51.30;;;;;;6077160;23;114593;-82
2022/11/19 11:18:44;;;;;;;16.30;9.25;;;0.50;52.80;;;;;;6053854;23;114197;-85
2022/11/19 11:21:27;;;;;;;18.45;9.13;;;0.50;53.40;;;;;;6053091;23;114854;-84
2022/11/19 11:23:54;;;;;;;19.27;9.65;;;0.60;51.80;;;;;;6076053;23;114825;-86
2022/11/19 11:26:26;;;;;;;21.23;10.63;;;0.30;52.40;;;;;;6076385;23;114025;-85
2022/11/19 11:29:00;;;;;;;;;;;0.30;52.30;;;;;;6055109;23;114362;-85
2022/11/19 11:31:28;;;;;;;21.00;9.50;;;0.20;51.90;;;;;;6053825;23;115059;-83
2022/11/19 11:33:56;;;;;;;19.83;10.43;;;0.10;53.30;;;;;;6055944;23;114655;-84
2022/11/19 11:36:27;;;;;;;20.08;11.52;;;0.20;53.20;;;;;;6006502;23;114150;-84
2022/11/19 11:38:58;;;;;;;20.88;11.25;;;0.20;52.90;;;;;;6030389;23;114280;-85
2022/11/19 11:41:36;;;;;;;19.73;11.20;;;0.30;53.90;;;;;;6029452;23;114778;-84
2022/11/19 11:44:27;;;;;;;21.10;11.45;;;0.40;54.20;;;;;;6014325;23;114619;-84
2022/11/19 11:46:59;;;;;;;20.88;10.07;;;0.50;53.80;;;;;;6030900;23;114359;-84
2022/11/19 11:49:38;;;;;;;23.63;11.40;;;0.50;51.90;;;;;;6031519;23;114316;-84
2022/11/19 11:52:07;;;;;;;18.00;10.27;;;0.40;52.70;;;;;;6030109;23;115113;-84
2022/11/19 11:54:35;;;;;;;21.88;11.43;;;0.40;53.30;;;;;;6055655;23;114599;-84
2022/11/19 11:57:17;;;;;;;19.05;10.45;;;0.40;52.10;;;;;;6007462;23;114359;-84
2022/11/19 11:59:44;;;;;;;17.60;8.68;;;0.10;52.00;;;;;;6031871;23;114276;-84
2022/11/19 12:02:29;;;;;;;20.58;9.55;;;0.00;52.40;;;;;;6028940;23;118182;-83
2022/11/19 12:04:59;;;;;;;17.33;9.00;;;0.00;51.90;;;;;;6054197;23;118190;-84
2022/11/19 12:07:46;;;;;;;15.13;8.32;;;-0.20;51.10;;;;;;6055275;23;114128;-84
2022/11/19 12:10:43;;;;;;;19.17;9.70;;;-0.40;51.60;;;;;;6031152;23;114153;-83
2022/11/19 12:13:26;;;;;;;23.88;11.27;;;-0.50;53.00;;;;;;6077177;23;114924;-84
2022/11/19 12:16:16;;;;;;;19.88;9.95;;;-0.40;54.00;;;;;;6055334;23;114610;-84
2022/11/19 12:19:09;;;;;;;18.77;9.38;;;-0.20;54.20;;;;;;6057051;23;114201;-84
2022/11/19 12:21:43;;;;;;;19.60;8.40;;;0.10;53.40;;;;;;6076735;23;114130;-84
2022/11/19 12:24:22;;;;;;;16.40;8.48;;;0.30;53.10;;;;;;6053951;23;118404;-84
2022/11/19 12:27:43;;;;;;;17.65;8.82;;;0.40;52.90;;;;;;6079799;23;114825;-83
2022/11/19 12:30:17;;;;;;;16.67;8.25;;;0.50;53.20;;;;;;6025525;23;114453;-84
2022/11/19 12:32:57;;;;;;;25.77;17.23;;;0.60;53.50;;;;;;6045505;23;114406;-83
2022/11/19 12:35:45;;;;;;;20.38;11.13;;;0.80;53.60;;;;;;6076603;23;114900;-84
2022/11/19 12:38:15;;;;;;;19.88;10.52;;;0.90;53.70;;;;;;6032644;23;114995;-84
2022/11/19 12:40:49;;;;;;;16.00;9.07;;;1.10;53.30;;;;;;6054007;23;114238;-84
2022/11/19 12:43:50;;;;;;;16.13;9.32;;;1.10;52.90;;;;;;6052819;23;114593;-84
2022/11/19 12:46:39;;;;;;;17.00;9.20;;;1.20;52.50;;;;;;6027600;23;117717;-85
2022/11/19 12:49:40;;;;;;;17.38;9.75;;;1.30;52.60;;;;;;6053426;23;114974;-84
2022/11/19 12:52:29;;;;;;;14.68;8.75;;;1.40;52.60;;;;;;6052985;23;114225;-84
2022/11/19 12:55:16;;;;;;;14.30;8.52;;;1.50;52.30;;;;;;6054509;23;114215;-84
2022/11/19 12:58:08;;;;;;;19.60;9.48;;;1.50;52.40;;;;;;6075096;23;115402;-84
2022/11/19 13:00:46;;;;;;;17.45;9.35;;;1.60;52.70;;;;;;6027783;23;116389;-85
2022/11/19 13:03:39;;;;;;;20.77;9.95;;;1.60;53.00;;;;;;6005324;23;114534;-85
2022/11/19 13:06:10;;;;;;;18.15;10.20;;;1.60;52.10;;;;;;6077332;23;114277;-85
2022/11/19 13:09:01;;;;;;;15.93;9.70;;;1.60;52.70;;;;;;6006424;23;117566;-84